Surface observations / Quebec / CYHU (71371)

Quebec | Canada | USA | France | UK | Europe | Elsewhere

Display: Info & Location for CYHU (71371) | Help decoding METAR

CYHU MONTREAL/ST HUBERT A QB CN
Raw surface observations for station CYHU
CYHU 181350Z AUTO 08006KT 1 3/4SM -SN BKN008 OVC013 M01/M01 A2993 RMK SLP139=
CYHU 181348Z AUTO 08006KT 1 3/4SM -SN FEW006 OVC011 M01/M01 A2993 RMK SLP139=
CYHU 181347Z AUTO 09006KT 2SM -SN BKN009 OVC015 M01/M01 A2993 RMK SLP138=
CYHU 181326Z AUTO 09007KT 2SM -SN SCT005 OVC013 M01/M01 A2994 RMK SLP140=
CYHU 181317Z AUTO 07005KT 2SM -SN BKN005 OVC017 M01/M02 A2994 RMK SLP141=
CYHU 181300Z AUTO 03007KT 1 3/4SM -SN OVC005 M02/M03 A2994 RMK SLP143=
CYHU 181254Z AUTO 03006KT 1 3/4SM -SN OVC005 M02/M03 A2994 RMK SLP143=
CYHU 181240Z AUTO 03006KT 2SM -SN OVC005 M02/M03 A2994 RMK SLP143=
CYHU 181200Z AUTO 01007KT 1 1/4SM -SN OVC005 M03/M03 A2994 RMK PCPN 0.5MM PAST HR SLP143=
CYHU 181124Z AUTO 02007KT 1 1/4SM -SN BKN005 OVC013 M02/M03 A2994 RMK SLP142=
CYHU 181100Z AUTO 02008KT 1 1/2SM -SN BKN007 OVC012 M02/M03 A2995 RMK SLP144=
CYHU 181043Z AUTO 01009KT 1 1/2SM -SN BKN007 OVC012 M03/M03 A2995 RMK SLP144=
CYHU 181022Z AUTO 01007KT 1 3/4SM -SN SCT008 OVC012 M03/M03 A2994 RMK SLP142=
CYHU 181017Z AUTO 02006KT 1 3/4SM -SN BKN008 OVC014 M03/M03 A2994 RMK SLP142=
CYHU 181000Z AUTO 03008KT 2SM -SN BKN006 OVC014 M02/M03 A2994 RMK SLP140=
CYHU 180946Z AUTO 02005KT 2SM -SN BKN006 OVC014 M03/M04 A2994 RMK SLP140=
CYHU 180939Z AUTO 01007KT 1 3/4SM -SN BKN006 OVC014 M03/M04 A2994 RMK SLP140=
CYHU 180922Z AUTO 02008KT 2SM -SN OVC006 M04/M04 A2994 RMK SLP140=
CYHU 180900Z AUTO 01009KT 1 1/2SM -SN OVC006 M03/M04 A2994 RMK SLP142=
CYHU 180829Z AUTO 02009KT 1 3/4SM -SN BKN006 OVC009 M04/M05 A2994 RMK SLP141=
CYHU 180818Z AUTO 02008KT 2SM -SN OVC006 M04/M05 A2994 RMK SLP143=
CYHU 180800Z AUTO 02009KT 1 1/2SM -SN OVC006 M04/M05 A2995 RMK SLP145=
CYHU 180700Z AUTO 02010KT 1 1/4SM -SN BKN006 OVC010 M04/M05 A2996 RMK SLP150=
CYHU 180600Z AUTO 03011KT 1 1/2SM -SN OVC008 M05/M06 A2998 RMK SLP155=
CYHU 180546Z AUTO 03011KT 1 3/4SM -SN BKN010 OVC015 M05/M06 A2998 RMK SLP156=
CYHU 180532Z AUTO 04011KT 2SM -SN BKN012 OVC018 M05/M06 A2999 RMK SLP158=
CYHU 180524Z AUTO 03012KT 1 3/4SM -SN BKN012 OVC020 M05/M06 A2999 RMK SLP160=
CYHU 180500Z AUTO 03012KT 2 1/2SM -SN OVC014 M05/M07 A3000 RMK SLP163=
CYHU 180444Z AUTO 03012KT 2SM -SN BKN014 BKN024 OVC029 M05/M07 A3001 RMK SLP165=
CYHU 180435Z AUTO 04011KT 1 3/4SM -SN BKN016 OVC026 M05/M07 A3002 RMK SLP167=
CYHU 180426Z AUTO 04011KT 1 3/4SM -SN FEW016 OVC026 M05/M07 A3002 RMK SLP167=
CYHU 180424Z AUTO 04011KT 2SM -SN FEW016 BKN024 OVC029 M05/M07 A3002 RMK SLP167=
CYHU 180406Z AUTO 03011KT 2 1/2SM -SN SCT026 OVC034 M05/M07 A3002 RMK SLP170=
CYHU 180400Z AUTO 03011KT 4SM -SN FEW029 OVC034 M05/M07 A3002 RMK SLP170=
CYHU 180343Z AUTO 03013KT 5SM -SN SCT031 OVC037 M05/M08 A3003 RMK SLP173=
CYHU 180309Z AUTO 02010KT 9SM -SN OVC039 M04/M09 A3005 RMK SLP177=
CYHU 180300Z AUTO 03010KT 9SM OVC039 M04/M09 A3005 RMK SLP177=
CYHU 180200Z AUTO 03012G17KT 9SM BKN080 BKN089 OVC110 M04/M09 A3004 RMK SLP174=
CYHU 180100Z AUTO 03012KT 9SM BKN110 OVC130 M03/M08 A3005 RMK SLP180=
CYHU 180000Z AUTO 04010G15KT 9SM FEW140 BKN160 BKN180 M03/M07 A3007 RMK SLP185=
CYHU 172300Z AUTO 04009KT 9SM OVC160 M03/M07 A3009 RMK SLP193=
CYHU 172200Z AUTO 04010KT 9SM BKN170 OVC190 M03/M07 A3013 RMK SLP204=
CYHU 172100Z AUTO 04010G15KT 9SM FEW180 M02/M07 A3014 RMK SLP210=
CYHU 172000Z AUTO 04012KT 9SM FEW210 SCT240 M01/M07 A3015 RMK SLP213=
CYHU 171900Z AUTO 05013KT 9SM SCT030 M00/M07 A3018 RMK SLP221=
CYHU 171800Z AUTO 04009KT 9SM OVC030 M01/M07 A3020 RMK SLP230=
CYHU 171700Z AUTO 06009KT 9SM OVC030 M01/M07 A3023 RMK SLP240=
CYHU 171600Z AUTO 07011KT 9SM OVC032 M01/M07 A3025 RMK SLP246=
CYHU 171500Z AUTO 05011KT 9SM OVC034 M01/M07 A3027 RMK SLP252=
CYHU 171400Z AUTO 06009G16KT 9SM OVC036 M01/M05 A3027 RMK SLP254=
CYHU 171300Z AUTO 04003KT 6SM BR OVC036 M02/M04 A3026 RMK SLP250=